sensor_id;sensor_type;location;lat;lon;timestamp;P1;durP1;ratioP1;P2;durP2;ratioP2
1026;SDS011;502;48.746;9.214;2023-06-19T00:01:27;10.40;;;9.60;;
1026;SDS011;502;48.746;9.214;2023-06-19T00:03:53;10.03;;;9.23;;
1026;SDS011;502;48.746;9.214;2023-06-19T00:06:20;10.77;;;9.67;;
1026;SDS011;502;48.746;9.214;2023-06-19T00:08:46;10.13;;;9.33;;
1026;SDS011;502;48.746;9.214;2023-06-19T00:11:13;10.60;;;9.70;;
1026;SDS011;502;48.746;9.214;2023-06-19T00:13:39;9.93;;;9.13;;
1026;SDS011;502;48.746;9.214;2023-06-19T00:16:06;9.90;;;9.00;;
1026;SDS011;502;48.746;9.214;2023-06-19T00:18:34;9.73;;;8.93;;
1026;SDS011;502;48.746;9.214;2023-06-19T00:21:04;10.00;;;9.10;;
1026;SDS011;502;48.746;9.214;2023-06-19T00:23:32;11.00;;;9.00;;
1026;SDS011;502;48.746;9.214;2023-06-19T00:25:59;10.97;;;9.87;;
1026;SDS011;502;48.746;9.214;2023-06-19T00:28:26;11.07;;;10.17;;
1026;SDS011;502;48.746;9.214;2023-06-19T00:30:52;9.33;;;8.53;;
1026;SDS011;502;48.746;9.214;2023-06-19T00:33:20;10.87;;;9.77;;
1026;SDS011;502;48.746;9.214;2023-06-19T00:35:49;11.10;;;10.03;;
1026;SDS011;502;48.746;9.214;2023-06-19T00:38:16;10.40;;;9.40;;
1026;SDS011;502;48.746;9.214;2023-06-19T00:40:43;10.67;;;9.80;;
1026;SDS011;502;48.746;9.214;2023-06-19T00:43:09;10.60;;;9.50;;
1026;SDS011;502;48.746;9.214;2023-06-19T00:45:36;10.40;;;9.33;;
1026;SDS011;502;48.746;9.214;2023-06-19T00:48:03;9.27;;;8.57;;
1026;SDS011;502;48.746;9.214;2023-06-19T00:50:30;10.10;;;9.30;;
1026;SDS011;502;48.746;9.214;2023-06-19T00:52:58;10.77;;;9.70;;
1026;SDS011;502;48.746;9.214;2023-06-19T00:55:28;10.00;;;9.20;;
1026;SDS011;502;48.746;9.214;2023-06-19T00:57:55;9.73;;;8.90;;
1026;SDS011;502;48.746;9.214;2023-06-19T01:00:22;10.67;;;9.70;;
1026;SDS011;502;48.746;9.214;2023-06-19T01:02:48;11.77;;;10.60;;
1026;SDS011;502;48.746;9.214;2023-06-19T01:05:15;10.77;;;9.67;;
1026;SDS011;502;48.746;9.214;2023-06-19T01:07:44;11.07;;;10.07;;
1026;SDS011;502;48.746;9.214;2023-06-19T01:10:15;10.80;;;9.90;;
1026;SDS011;502;48.746;9.214;2023-06-19T01:12:45;10.60;;;9.70;;
1026;SDS011;502;48.746;9.214;2023-06-19T01:15:17;11.13;;;10.10;;
1026;SDS011;502;48.746;9.214;2023-06-19T01:17:44;10.40;;;9.50;;
1026;SDS011;502;48.746;9.214;2023-06-19T01:20:13;9.73;;;8.90;;
1026;SDS011;502;48.746;9.214;2023-06-19T01:22:41;9.90;;;9.00;;
1026;SDS011;502;48.746;9.214;2023-06-19T01:25:08;9.63;;;8.73;;
1026;SDS011;502;48.746;9.214;2023-06-19T01:27:35;9.17;;;8.20;;
1026;SDS011;502;48.746;9.214;2023-06-19T01:30:03;9.37;;;8.57;;
1026;SDS011;502;48.746;9.214;2023-06-19T01:32:31;8.70;;;8.00;;
1026;SDS011;502;48.746;9.214;2023-06-19T01:35:00;8.93;;;8.13;;
1026;SDS011;502;48.746;9.214;2023-06-19T01:37:28;9.40;;;8.60;;
1026;SDS011;502;48.746;9.214;2023-06-19T01:39:59;8.30;;;7.60;;
1026;SDS011;502;48.746;9.214;2023-06-19T01:42:30;8.20;;;7.07;;
1026;SDS011;502;48.746;9.214;2023-06-19T01:44:57;8.20;;;7.50;;
1026;SDS011;502;48.746;9.214;2023-06-19T01:47:25;8.30;;;7.50;;
1026;SDS011;502;48.746;9.214;2023-06-19T01:49:53;7.83;;;6.77;;
1026;SDS011;502;48.746;9.214;2023-06-19T01:52:20;7.90;;;7.17;;
1026;SDS011;502;48.746;9.214;2023-06-19T01:54:46;8.50;;;7.80;;
1026;SDS011;502;48.746;9.214;2023-06-19T01:57:15;6.97;;;6.37;;
1026;SDS011;502;48.746;9.214;2023-06-19T01:59:41;8.40;;;7.60;;
1026;SDS011;502;48.746;9.214;2023-06-19T02:02:08;7.47;;;6.77;;
1026;SDS011;502;48.746;9.214;2023-06-19T02:04:35;7.43;;;6.73;;
1026;SDS011;502;48.746;9.214;2023-06-19T02:07:02;7.30;;;6.60;;
1026;SDS011;502;48.746;9.214;2023-06-19T02:09:29;7.30;;;6.70;;
1026;SDS011;502;48.746;9.214;2023-06-19T02:11:55;7.90;;;7.20;;
1026;SDS011;502;48.746;9.214;2023-06-19T02:14:24;7.60;;;6.90;;
1026;SDS011;502;48.746;9.214;2023-06-19T02:16:50;7.50;;;6.50;;
1026;SDS011;502;48.746;9.214;2023-06-19T02:19:17;7.53;;;6.90;;
1026;SDS011;502;48.746;9.214;2023-06-19T02:21:43;7.23;;;6.63;;
1026;SDS011;502;48.746;9.214;2023-06-19T02:24:10;6.43;;;5.83;;
1026;SDS011;502;48.746;9.214;2023-06-19T02:26:37;7.63;;;6.90;;
1026;SDS011;502;48.746;9.214;2023-06-19T02:29:04;7.10;;;6.50;;
1026;SDS011;502;48.746;9.214;2023-06-19T02:31:32;7.90;;;7.10;;
1026;SDS011;502;48.746;9.214;2023-06-19T02:33:58;7.90;;;6.70;;
1026;SDS011;502;48.746;9.214;2023-06-19T02:36:25;7.03;;;6.43;;
1026;SDS011;502;48.746;9.214;2023-06-19T02:38:52;6.60;;;6.07;;
1026;SDS011;502;48.746;9.214;2023-06-19T02:41:20;7.20;;;6.60;;
1026;SDS011;502;48.746;9.214;2023-06-19T02:43:47;7.40;;;6.70;;
1026;SDS011;502;48.746;9.214;2023-06-19T02:46:13;7.27;;;6.67;;
1026;SDS011;502;48.746;9.214;2023-06-19T02:48:41;7.17;;;6.57;;
1026;SDS011;502;48.746;9.214;2023-06-19T02:51:08;7.10;;;6.40;;
1026;SDS011;502;48.746;9.214;2023-06-19T02:53:34;7.13;;;6.30;;
1026;SDS011;502;48.746;9.214;2023-06-19T02:56:01;6.67;;;6.17;;
1026;SDS011;502;48.746;9.214;2023-06-19T02:58:27;6.97;;;6.37;;
1026;SDS011;502;48.746;9.214;2023-06-19T03:00:54;6.30;;;5.80;;
1026;SDS011;502;48.746;9.214;2023-06-19T03:06:11;6.77;;;6.27;;
1026;SDS011;502;48.746;9.214;2023-06-19T03:08:38;6.50;;;5.90;;
1026;SDS011;502;48.746;9.214;2023-06-19T03:11:05;6.83;;;6.13;;
1026;SDS011;502;48.746;9.214;2023-06-19T03:13:35;6.80;;;6.07;;
1026;SDS011;502;48.746;9.214;2023-06-19T03:16:09;6.20;;;5.70;;
1026;SDS011;502;48.746;9.214;2023-06-19T03:18:36;5.93;;;5.43;;
1026;SDS011;502;48.746;9.214;2023-06-19T03:21:04;5.77;;;5.27;;
1026;SDS011;502;48.746;9.214;2023-06-19T03:23:31;5.97;;;5.37;;
1026;SDS011;502;48.746;9.214;2023-06-19T03:25:57;5.53;;;5.03;;
1026;SDS011;502;48.746;9.214;2023-06-19T03:28:24;6.97;;;5.10;;
1026;SDS011;502;48.746;9.214;2023-06-19T03:30:52;5.60;;;4.80;;
1026;SDS011;502;48.746;9.214;2023-06-19T03:33:21;7.50;;;5.77;;
1026;SDS011;502;48.746;9.214;2023-06-19T03:35:48;4.73;;;4.33;;
1026;SDS011;502;48.746;9.214;2023-06-19T03:38:27;5.47;;;4.97;;
1026;SDS011;502;48.746;9.214;2023-06-19T03:40:54;8.80;;;4.93;;
1026;SDS011;502;48.746;9.214;2023-06-19T03:43:21;5.20;;;4.70;;
1026;SDS011;502;48.746;9.214;2023-06-19T03:45:47;4.90;;;4.50;;
1026;SDS011;502;48.746;9.214;2023-06-19T03:48:15;5.53;;;5.03;;
1026;SDS011;502;48.746;9.214;2023-06-19T03:50:41;4.70;;;4.30;;
1026;SDS011;502;48.746;9.214;2023-06-19T03:53:08;4.60;;;4.20;;
1026;SDS011;502;48.746;9.214;2023-06-19T03:55:36;4.40;;;4.00;;
1026;SDS011;502;48.746;9.214;2023-06-19T03:58:03;4.90;;;4.40;;
1026;SDS011;502;48.746;9.214;2023-06-19T04:00:31;5.33;;;4.37;;
1026;SDS011;502;48.746;9.214;2023-06-19T04:02:57;4.50;;;4.10;;
1026;SDS011;502;48.746;9.214;2023-06-19T04:05:24;4.80;;;4.13;;
1026;SDS011;502;48.746;9.214;2023-06-19T04:07:51;6.10;;;4.10;;
1026;SDS011;502;48.746;9.214;2023-06-19T04:10:17;3.80;;;3.50;;
1026;SDS011;502;48.746;9.214;2023-06-19T04:12:46;3.70;;;3.40;;
1026;SDS011;502;48.746;9.214;2023-06-19T04:15:13;4.90;;;4.20;;
1026;SDS011;502;48.746;9.214;2023-06-19T04:17:39;4.27;;;3.87;;
1026;SDS011;502;48.746;9.214;2023-06-19T04:20:08;5.03;;;4.53;;
1026;SDS011;502;48.746;9.214;2023-06-19T04:22:36;4.67;;;4.27;;
1026;SDS011;502;48.746;9.214;2023-06-19T04:25:03;5.13;;;4.33;;
1026;SDS011;502;48.746;9.214;2023-06-19T04:27:31;4.40;;;4.00;;
1026;SDS011;502;48.746;9.214;2023-06-19T04:29:58;4.60;;;4.20;;
1026;SDS011;502;48.746;9.214;2023-06-19T04:32:25;4.53;;;4.13;;
1026;SDS011;502;48.746;9.214;2023-06-19T04:34:52;4.63;;;4.23;;
1026;SDS011;502;48.746;9.214;2023-06-19T04:37:18;4.40;;;4.00;;
1026;SDS011;502;48.746;9.214;2023-06-19T04:39:45;3.97;;;3.67;;
1026;SDS011;502;48.746;9.214;2023-06-19T04:42:12;5.17;;;3.93;;
1026;SDS011;502;48.746;9.214;2023-06-19T04:44:44;3.97;;;3.57;;
1026;SDS011;502;48.746;9.214;2023-06-19T04:47:12;5.97;;;3.50;;
1026;SDS011;502;48.746;9.214;2023-06-19T04:49:39;3.83;;;3.43;;
1026;SDS011;502;48.746;9.214;2023-06-19T04:52:06;5.77;;;4.83;;
1026;SDS011;502;48.746;9.214;2023-06-19T04:54:33;4.80;;;4.40;;
1026;SDS011;502;48.746;9.214;2023-06-19T04:56:59;4.93;;;4.43;;
1026;SDS011;502;48.746;9.214;2023-06-19T04:59:26;4.90;;;4.40;;
1026;SDS011;502;48.746;9.214;2023-06-19T05:01:55;5.00;;;4.60;;
1026;SDS011;502;48.746;9.214;2023-06-19T05:04:23;7.80;;;4.20;;
1026;SDS011;502;48.746;9.214;2023-06-19T05:06:50;4.60;;;4.20;;
1026;SDS011;502;48.746;9.214;2023-06-19T05:09:16;5.70;;;4.83;;
1026;SDS011;502;48.746;9.214;2023-06-19T05:11:43;5.10;;;4.30;;
1026;SDS011;502;48.746;9.214;2023-06-19T05:14:10;4.47;;;4.07;;
1026;SDS011;502;48.746;9.214;2023-06-19T05:16:36;5.23;;;4.10;;
1026;SDS011;502;48.746;9.214;2023-06-19T05:19:04;4.60;;;4.20;;
1026;SDS011;502;48.746;9.214;2023-06-19T05:21:32;4.07;;;3.70;;
1026;SDS011;502;48.746;9.214;2023-06-19T05:23:59;4.10;;;3.53;;
1026;SDS011;502;48.746;9.214;2023-06-19T05:26:25;5.00;;;4.60;;
1026;SDS011;502;48.746;9.214;2023-06-19T05:28:52;4.80;;;4.40;;
1026;SDS011;502;48.746;9.214;2023-06-19T05:31:19;4.67;;;4.23;;
1026;SDS011;502;48.746;9.214;2023-06-19T05:33:45;4.70;;;4.30;;
1026;SDS011;502;48.746;9.214;2023-06-19T05:36:12;4.70;;;4.17;;
1026;SDS011;502;48.746;9.214;2023-06-19T05:38:40;4.93;;;4.50;;
1026;SDS011;502;48.746;9.214;2023-06-19T05:41:06;5.27;;;4.70;;
1026;SDS011;502;48.746;9.214;2023-06-19T05:43:32;5.00;;;4.50;;
1026;SDS011;502;48.746;9.214;2023-06-19T05:46:00;5.80;;;3.90;;
1026;SDS011;502;48.746;9.214;2023-06-19T05:48:27;4.43;;;4.03;;
1026;SDS011;502;48.746;9.214;2023-06-19T05:50:54;5.30;;;4.67;;
1026;SDS011;502;48.746;9.214;2023-06-19T05:53:20;4.57;;;4.17;;
1026;SDS011;502;48.746;9.214;2023-06-19T05:55:48;4.20;;;3.90;;
1026;SDS011;502;48.746;9.214;2023-06-19T05:58:16;4.50;;;4.10;;
1026;SDS011;502;48.746;9.214;2023-06-19T06:00:45;4.03;;;3.73;;
1026;SDS011;502;48.746;9.214;2023-06-19T06:03:11;4.23;;;3.83;;
1026;SDS011;502;48.746;9.214;2023-06-19T06:05:38;4.00;;;3.70;;
1026;SDS011;502;48.746;9.214;2023-06-19T06:08:05;3.93;;;3.63;;
1026;SDS011;502;48.746;9.214;2023-06-19T06:10:32;4.27;;;3.87;;
1026;SDS011;502;48.746;9.214;2023-06-19T06:13:00;4.50;;;4.10;;
1026;SDS011;502;48.746;9.214;2023-06-19T06:15:27;4.57;;;4.10;;
1026;SDS011;502;48.746;9.214;2023-06-19T06:17:53;4.10;;;3.80;;
1026;SDS011;502;48.746;9.214;2023-06-19T06:20:20;3.90;;;3.47;;
1026;SDS011;502;48.746;9.214;2023-06-19T06:22:47;4.27;;;3.97;;
1026;SDS011;502;48.746;9.214;2023-06-19T06:25:13;4.30;;;3.90;;
1026;SDS011;502;48.746;9.214;2023-06-19T06:27:40;4.27;;;3.87;;
1026;SDS011;502;48.746;9.214;2023-06-19T06:30:09;3.57;;;3.27;;
1026;SDS011;502;48.746;9.214;2023-06-19T06:32:37;4.10;;;3.73;;
1026;SDS011;502;48.746;9.214;2023-06-19T06:35:04;4.00;;;3.50;;
1026;SDS011;502;48.746;9.214;2023-06-19T06:37:31;3.80;;;3.50;;
1026;SDS011;502;48.746;9.214;2023-06-19T06:39:58;4.07;;;3.67;;
1026;SDS011;502;48.746;9.214;2023-06-19T06:42:25;3.80;;;3.50;;
1026;SDS011;502;48.746;9.214;2023-06-19T06:44:51;3.73;;;3.43;;
1026;SDS011;502;48.746;9.214;2023-06-19T06:47:19;3.67;;;3.37;;
1026;SDS011;502;48.746;9.214;2023-06-19T06:49:46;3.30;;;3.00;;
1026;SDS011;502;48.746;9.214;2023-06-19T06:52:12;3.70;;;3.33;;
1026;SDS011;502;48.746;9.214;2023-06-19T06:58:27;3.77;;;3.47;;
1026;SDS011;502;48.746;9.214;2023-06-19T07:00:53;3.63;;;3.33;;
1026;SDS011;502;48.746;9.214;2023-06-19T07:03:21;3.80;;;3.50;;
1026;SDS011;502;48.746;9.214;2023-06-19T07:05:48;3.40;;;3.10;;
1026;SDS011;502;48.746;9.214;2023-06-19T07:08:14;3.37;;;3.17;;
1026;SDS011;502;48.746;9.214;2023-06-19T07:10:41;3.23;;;2.87;;
1026;SDS011;502;48.746;9.214;2023-06-19T07:13:07;2.87;;;2.67;;
1026;SDS011;502;48.746;9.214;2023-06-19T07:15:34;2.57;;;2.37;;
1026;SDS011;502;48.746;9.214;2023-06-19T07:18:01;2.93;;;2.73;;
1026;SDS011;502;48.746;9.214;2023-06-19T07:20:29;2.73;;;2.53;;
1026;SDS011;502;48.746;9.214;2023-06-19T07:22:55;3.20;;;2.90;;
1026;SDS011;502;48.746;9.214;2023-06-19T07:25:22;3.80;;;3.40;;
1026;SDS011;502;48.746;9.214;2023-06-19T07:27:50;3.30;;;3.00;;
1026;SDS011;502;48.746;9.214;2023-06-19T07:30:16;3.37;;;3.07;;
1026;SDS011;502;48.746;9.214;2023-06-19T07:32:43;4.00;;;3.30;;
1026;SDS011;502;48.746;9.214;2023-06-19T07:35:10;3.13;;;2.90;;
1026;SDS011;502;48.746;9.214;2023-06-19T07:37:38;3.50;;;2.87;;
1026;SDS011;502;48.746;9.214;2023-06-19T07:40:05;3.37;;;3.07;;
1026;SDS011;502;48.746;9.214;2023-06-19T07:42:33;3.50;;;3.20;;
1026;SDS011;502;48.746;9.214;2023-06-19T07:44:59;2.80;;;2.60;;
1026;SDS011;502;48.746;9.214;2023-06-19T07:47:26;3.20;;;2.90;;
1026;SDS011;502;48.746;9.214;2023-06-19T07:49:52;3.37;;;2.90;;
1026;SDS011;502;48.746;9.214;2023-06-19T07:52:19;3.70;;;3.40;;
1026;SDS011;502;48.746;9.214;2023-06-19T07:54:51;3.27;;;3.07;;
1026;SDS011;502;48.746;9.214;2023-06-19T07:57:19;3.70;;;3.40;;
1026;SDS011;502;48.746;9.214;2023-06-19T07:59:46;3.60;;;3.30;;
1026;SDS011;502;48.746;9.214;2023-06-19T08:02:13;3.40;;;3.10;;
1026;SDS011;502;48.746;9.214;2023-06-19T08:04:39;3.80;;;3.50;;
1026;SDS011;502;48.746;9.214;2023-06-19T08:07:06;3.27;;;2.97;;
1026;SDS011;502;48.746;9.214;2023-06-19T08:09:33;4.03;;;3.50;;
1026;SDS011;502;48.746;9.214;2023-06-19T08:12:02;4.20;;;3.70;;
1026;SDS011;502;48.746;9.214;2023-06-19T08:14:29;3.30;;;3.00;;
1026;SDS011;502;48.746;9.214;2023-06-19T08:16:55;3.07;;;2.87;;
1026;SDS011;502;48.746;9.214;2023-06-19T08:19:22;4.40;;;4.00;;
1026;SDS011;502;48.746;9.214;2023-06-19T08:21:49;6.03;;;3.47;;
1026;SDS011;502;48.746;9.214;2023-06-19T08:24:15;3.93;;;3.63;;
1026;SDS011;502;48.746;9.214;2023-06-19T08:26:42;3.83;;;3.47;;
1026;SDS011;502;48.746;9.214;2023-06-19T08:29:10;3.80;;;3.50;;
1026;SDS011;502;48.746;9.214;2023-06-19T08:31:36;3.60;;;3.30;;
1026;SDS011;502;48.746;9.214;2023-06-19T08:34:03;4.67;;;3.63;;
1026;SDS011;502;48.746;9.214;2023-06-19T08:36:33;3.80;;;3.50;;
1026;SDS011;502;48.746;9.214;2023-06-19T08:38:59;3.23;;;2.93;;
1026;SDS011;502;48.746;9.214;2023-06-19T08:41:26;4.37;;;3.97;;
1026;SDS011;502;48.746;9.214;2023-06-19T08:43:53;3.00;;;2.73;;
1026;SDS011;502;48.746;9.214;2023-06-19T08:46:21;3.70;;;3.40;;
1026;SDS011;502;48.746;9.214;2023-06-19T08:48:50;4.20;;;3.80;;
1026;SDS011;502;48.746;9.214;2023-06-19T08:51:17;3.63;;;3.33;;
1026;SDS011;502;48.746;9.214;2023-06-19T08:53:45;3.90;;;3.60;;
1026;SDS011;502;48.746;9.214;2023-06-19T08:56:12;4.07;;;3.77;;
1026;SDS011;502;48.746;9.214;2023-06-19T08:58:38;3.63;;;3.33;;
1026;SDS011;502;48.746;9.214;2023-06-19T09:01:05;4.47;;;3.10;;
1026;SDS011;502;48.746;9.214;2023-06-19T09:03:33;3.03;;;2.80;;
1026;SDS011;502;48.746;9.214;2023-06-19T09:06:02;3.73;;;3.00;;
1026;SDS011;502;48.746;9.214;2023-06-19T09:08:37;3.13;;;2.90;;
1026;SDS011;502;48.746;9.214;2023-06-19T09:11:06;3.67;;;3.33;;
1026;SDS011;502;48.746;9.214;2023-06-19T09:13:33;3.23;;;2.70;;
1026;SDS011;502;48.746;9.214;2023-06-19T09:16:01;3.20;;;2.90;;
1026;SDS011;502;48.746;9.214;2023-06-19T09:18:29;3.33;;;2.87;;
1026;SDS011;502;48.746;9.214;2023-06-19T09:20:58;3.00;;;2.80;;
1026;SDS011;502;48.746;9.214;2023-06-19T09:23:24;2.83;;;2.50;;
1026;SDS011;502;48.746;9.214;2023-06-19T09:25:57;3.20;;;2.90;;
1026;SDS011;502;48.746;9.214;2023-06-19T09:28:24;3.10;;;2.80;;
1026;SDS011;502;48.746;9.214;2023-06-19T09:30:55;3.33;;;3.03;;
1026;SDS011;502;48.746;9.214;2023-06-19T09:33:22;2.90;;;2.70;;
1026;SDS011;502;48.746;9.214;2023-06-19T09:35:49;3.20;;;2.90;;
1026;SDS011;502;48.746;9.214;2023-06-19T09:38:18;3.07;;;2.77;;
1026;SDS011;502;48.746;9.214;2023-06-19T09:40:47;2.60;;;2.40;;
1026;SDS011;502;48.746;9.214;2023-06-19T09:43:15;3.30;;;3.00;;
1026;SDS011;502;48.746;9.214;2023-06-19T09:45:46;3.13;;;2.87;;
1026;SDS011;502;48.746;9.214;2023-06-19T09:48:15;3.43;;;2.53;;
1026;SDS011;502;48.746;9.214;2023-06-19T09:50:52;3.30;;;3.00;;
1026;SDS011;502;48.746;9.214;2023-06-19T09:53:22;3.57;;;3.27;;
1026;SDS011;502;48.746;9.214;2023-06-19T09:55:49;3.00;;;2.80;;
1026;SDS011;502;48.746;9.214;2023-06-19T09:58:17;3.03;;;2.83;;
1026;SDS011;502;48.746;9.214;2023-06-19T10:00:44;3.43;;;3.13;;
1026;SDS011;502;48.746;9.214;2023-06-19T10:03:12;3.60;;;3.30;;
1026;SDS011;502;48.746;9.214;2023-06-19T10:05:39;3.67;;;3.40;;
1026;SDS011;502;48.746;9.214;2023-06-19T10:08:06;3.80;;;3.50;;
1026;SDS011;502;48.746;9.214;2023-06-19T10:10:35;3.30;;;3.10;;
1026;SDS011;502;48.746;9.214;2023-06-19T10:13:11;3.50;;;3.20;;
1026;SDS011;502;48.746;9.214;2023-06-19T10:15:40;3.47;;;3.17;;
1026;SDS011;502;48.746;9.214;2023-06-19T10:18:07;4.20;;;3.40;;
1026;SDS011;502;48.746;9.214;2023-06-19T10:20:34;4.07;;;3.77;;
1026;SDS011;502;48.746;9.214;2023-06-19T10:23:04;3.97;;;3.67;;
1026;SDS011;502;48.746;9.214;2023-06-19T10:25:32;4.17;;;3.77;;
1026;SDS011;502;48.746;9.214;2023-06-19T10:28:01;4.50;;;4.10;;
1026;SDS011;502;48.746;9.214;2023-06-19T10:30:31;4.00;;;3.70;;
1026;SDS011;502;48.746;9.214;2023-06-19T10:32:59;3.90;;;3.60;;
1026;SDS011;502;48.746;9.214;2023-06-19T10:35:29;4.43;;;4.03;;
1026;SDS011;502;48.746;9.214;2023-06-19T10:37:55;4.50;;;4.10;;
1026;SDS011;502;48.746;9.214;2023-06-19T10:40:22;4.27;;;3.87;;
1026;SDS011;502;48.746;9.214;2023-06-19T10:42:48;5.10;;;4.17;;
1026;SDS011;502;48.746;9.214;2023-06-19T10:45:16;4.70;;;4.30;;
1026;SDS011;502;48.746;9.214;2023-06-19T10:47:43;4.77;;;4.37;;
1026;SDS011;502;48.746;9.214;2023-06-19T10:50:11;4.50;;;4.20;;
1026;SDS011;502;48.746;9.214;2023-06-19T10:52:42;4.87;;;4.37;;
1026;SDS011;502;48.746;9.214;2023-06-19T10:55:09;4.70;;;4.30;;
1026;SDS011;502;48.746;9.214;2023-06-19T10:57:37;4.47;;;3.80;;
1026;SDS011;502;48.746;9.214;2023-06-19T11:00:04;5.40;;;4.50;;
1026;SDS011;502;48.746;9.214;2023-06-19T11:02:38;5.87;;;5.33;;
1026;SDS011;502;48.746;9.214;2023-06-19T11:05:08;5.00;;;4.60;;
1026;SDS011;502;48.746;9.214;2023-06-19T11:07:35;5.60;;;5.20;;
1026;SDS011;502;48.746;9.214;2023-06-19T11:10:02;4.67;;;4.27;;
1026;SDS011;502;48.746;9.214;2023-06-19T11:12:28;4.67;;;4.27;;
1026;SDS011;502;48.746;9.214;2023-06-19T11:14:55;6.70;;;6.00;;
1026;SDS011;502;48.746;9.214;2023-06-19T11:17:22;4.90;;;4.50;;
1026;SDS011;502;48.746;9.214;2023-06-19T11:19:50;5.33;;;4.40;;
1026;SDS011;502;48.746;9.214;2023-06-19T11:22:17;4.67;;;4.27;;
1026;SDS011;502;48.746;9.214;2023-06-19T11:24:44;5.20;;;4.70;;
1026;SDS011;502;48.746;9.214;2023-06-19T11:27:21;5.03;;;4.63;;
1026;SDS011;502;48.746;9.214;2023-06-19T11:29:54;7.57;;;5.13;;
1026;SDS011;502;48.746;9.214;2023-06-19T11:32:21;4.73;;;4.33;;
1026;SDS011;502;48.746;9.214;2023-06-19T11:34:51;5.67;;;5.27;;
1026;SDS011;502;48.746;9.214;2023-06-19T11:37:22;5.20;;;4.70;;
1026;SDS011;502;48.746;9.214;2023-06-19T11:39:49;5.17;;;4.77;;
1026;SDS011;502;48.746;9.214;2023-06-19T11:42:17;5.60;;;5.10;;
1026;SDS011;502;48.746;9.214;2023-06-19T11:44:53;5.13;;;4.73;;
1026;SDS011;502;48.746;9.214;2023-06-19T11:47:20;5.07;;;4.67;;
1026;SDS011;502;48.746;9.214;2023-06-19T11:49:47;4.77;;;4.37;;
1026;SDS011;502;48.746;9.214;2023-06-19T11:52:16;5.20;;;4.70;;
1026;SDS011;502;48.746;9.214;2023-06-19T11:54:43;5.67;;;5.17;;
1026;SDS011;502;48.746;9.214;2023-06-19T11:57:10;7.73;;;4.73;;
1026;SDS011;502;48.746;9.214;2023-06-19T11:59:38;6.20;;;5.60;;
1026;SDS011;502;48.746;9.214;2023-06-19T12:02:04;5.40;;;5.00;;
1026;SDS011;502;48.746;9.214;2023-06-19T12:04:31;9.23;;;4.80;;
1026;SDS011;502;48.746;9.214;2023-06-19T12:06:58;4.63;;;4.23;;
1026;SDS011;502;48.746;9.214;2023-06-19T12:09:27;5.80;;;5.10;;
1026;SDS011;502;48.746;9.214;2023-06-19T12:11:53;5.10;;;4.70;;
1026;SDS011;502;48.746;9.214;2023-06-19T12:14:20;4.97;;;4.57;;
1026;SDS011;502;48.746;9.214;2023-06-19T12:16:46;5.17;;;4.77;;
1026;SDS011;502;48.746;9.214;2023-06-19T12:19:13;6.23;;;5.03;;
1026;SDS011;502;48.746;9.214;2023-06-19T12:21:39;5.73;;;5.23;;
1026;SDS011;502;48.746;9.214;2023-06-19T12:24:06;5.53;;;5.03;;
1026;SDS011;502;48.746;9.214;2023-06-19T12:26:34;5.73;;;5.23;;
1026;SDS011;502;48.746;9.214;2023-06-19T12:29:02;5.30;;;4.80;;
1026;SDS011;502;48.746;9.214;2023-06-19T12:31:29;5.77;;;5.27;;
1026;SDS011;502;48.746;9.214;2023-06-19T12:33:55;5.43;;;4.93;;
1026;SDS011;502;48.746;9.214;2023-06-19T12:36:22;9.50;;;5.23;;
1026;SDS011;502;48.746;9.214;2023-06-19T12:38:48;5.40;;;4.90;;
1026;SDS011;502;48.746;9.214;2023-06-19T12:41:15;8.63;;;5.87;;
1026;SDS011;502;48.746;9.214;2023-06-19T12:43:43;12.87;;;5.60;;
1026;SDS011;502;48.746;9.214;2023-06-19T12:46:09;5.50;;;5.00;;
1026;SDS011;502;48.746;9.214;2023-06-19T12:48:37;5.50;;;5.00;;
1026;SDS011;502;48.746;9.214;2023-06-19T12:51:03;5.50;;;5.00;;
1026;SDS011;502;48.746;9.214;2023-06-19T12:53:30;5.90;;;5.30;;
1026;SDS011;502;48.746;9.214;2023-06-19T12:55:57;6.70;;;5.40;;
1026;SDS011;502;48.746;9.214;2023-06-19T12:58:23;5.37;;;4.87;;
1026;SDS011;502;48.746;9.214;2023-06-19T13:00:51;5.70;;;5.30;;
1026;SDS011;502;48.746;9.214;2023-06-19T13:03:18;5.87;;;5.23;;
1026;SDS011;502;48.746;9.214;2023-06-19T13:05:45;8.70;;;4.97;;
1026;SDS011;502;48.746;9.214;2023-06-19T13:08:12;5.80;;;5.23;;
1026;SDS011;502;48.746;9.214;2023-06-19T13:10:38;4.87;;;4.47;;
1026;SDS011;502;48.746;9.214;2023-06-19T13:13:05;5.47;;;4.97;;
1026;SDS011;502;48.746;9.214;2023-06-19T13:15:32;4.90;;;4.50;;
1026;SDS011;502;48.746;9.214;2023-06-19T13:18:00;5.00;;;4.60;;
1026;SDS011;502;48.746;9.214;2023-06-19T13:20:27;7.57;;;4.70;;
1026;SDS011;502;48.746;9.214;2023-06-19T13:22:53;5.23;;;4.83;;
1026;SDS011;502;48.746;9.214;2023-06-19T13:25:20;4.83;;;4.43;;
1026;SDS011;502;48.746;9.214;2023-06-19T13:27:46;5.73;;;5.33;;
1026;SDS011;502;48.746;9.214;2023-06-19T13:30:13;5.67;;;5.27;;
1026;SDS011;502;48.746;9.214;2023-06-19T13:32:41;4.80;;;4.40;;
1026;SDS011;502;48.746;9.214;2023-06-19T13:35:09;13.83;;;5.90;;
1026;SDS011;502;48.746;9.214;2023-06-19T13:37:36;5.20;;;4.70;;
1026;SDS011;502;48.746;9.214;2023-06-19T13:40:04;5.83;;;4.17;;
1026;SDS011;502;48.746;9.214;2023-06-19T13:42:32;4.57;;;4.17;;
1026;SDS011;502;48.746;9.214;2023-06-19T13:45:00;5.23;;;4.60;;
1026;SDS011;502;48.746;9.214;2023-06-19T13:47:27;4.73;;;4.27;;
1026;SDS011;502;48.746;9.214;2023-06-19T13:49:53;4.87;;;4.40;;
1026;SDS011;502;48.746;9.214;2023-06-19T13:52:21;5.40;;;4.93;;
1026;SDS011;502;48.746;9.214;2023-06-19T13:54:48;5.90;;;5.40;;
1026;SDS011;502;48.746;9.214;2023-06-19T13:57:15;5.30;;;4.90;;
1026;SDS011;502;48.746;9.214;2023-06-19T13:59:42;9.43;;;5.53;;
1026;SDS011;502;48.746;9.214;2023-06-19T14:02:09;5.33;;;4.30;;
1026;SDS011;502;48.746;9.214;2023-06-19T14:04:36;5.43;;;4.97;;
1026;SDS011;502;48.746;9.214;2023-06-19T14:07:02;5.67;;;5.17;;
1026;SDS011;502;48.746;9.214;2023-06-19T14:09:32;5.30;;;4.80;;
1026;SDS011;502;48.746;9.214;2023-06-19T14:11:58;5.60;;;5.07;;
1026;SDS011;502;48.746;9.214;2023-06-19T14:14:25;5.40;;;4.90;;
1026;SDS011;502;48.746;9.214;2023-06-19T14:16:51;6.60;;;5.00;;
1026;SDS011;502;48.746;9.214;2023-06-19T14:19:18;7.37;;;5.20;;
1026;SDS011;502;48.746;9.214;2023-06-19T14:21:44;5.13;;;4.63;;
1026;SDS011;502;48.746;9.214;2023-06-19T14:24:11;4.80;;;4.40;;
1026;SDS011;502;48.746;9.214;2023-06-19T14:26:39;4.87;;;4.47;;
1026;SDS011;502;48.746;9.214;2023-06-19T14:29:06;5.73;;;5.27;;
1026;SDS011;502;48.746;9.214;2023-06-19T14:31:33;9.77;;;5.13;;
1026;SDS011;502;48.746;9.214;2023-06-19T14:33:59;7.63;;;4.50;;
1026;SDS011;502;48.746;9.214;2023-06-19T14:36:26;7.00;;;4.93;;
1026;SDS011;502;48.746;9.214;2023-06-19T14:38:52;5.10;;;4.70;;
1026;SDS011;502;48.746;9.214;2023-06-19T14:41:19;5.50;;;5.03;;
1026;SDS011;502;48.746;9.214;2023-06-19T14:43:47;4.93;;;4.53;;
1026;SDS011;502;48.746;9.214;2023-06-19T14:46:14;4.90;;;4.03;;
1026;SDS011;502;48.746;9.214;2023-06-19T14:48:40;4.60;;;4.20;;
1026;SDS011;502;48.746;9.214;2023-06-19T14:51:07;4.77;;;4.30;;
1026;SDS011;502;48.746;9.214;2023-06-19T14:53:35;5.10;;;4.70;;
1026;SDS011;502;48.746;9.214;2023-06-19T14:56:01;5.47;;;4.97;;
1026;SDS011;502;48.746;9.214;2023-06-19T14:58:28;5.30;;;4.80;;
1026;SDS011;502;48.746;9.214;2023-06-19T15:00:56;5.33;;;4.93;;
1026;SDS011;502;48.746;9.214;2023-06-19T15:03:23;4.93;;;4.43;;
1026;SDS011;502;48.746;9.214;2023-06-19T15:05:49;4.73;;;4.33;;
1026;SDS011;502;48.746;9.214;2023-06-19T15:08:16;5.47;;;5.07;;
1026;SDS011;502;48.746;9.214;2023-06-19T15:10:46;5.17;;;4.77;;
1026;SDS011;502;48.746;9.214;2023-06-19T15:13:13;5.00;;;4.60;;
1026;SDS011;502;48.746;9.214;2023-06-19T15:15:41;7.10;;;5.00;;
1026;SDS011;502;48.746;9.214;2023-06-19T15:18:09;5.50;;;5.00;;
1026;SDS011;502;48.746;9.214;2023-06-19T15:20:35;5.53;;;4.80;;
1026;SDS011;502;48.746;9.214;2023-06-19T15:23:03;5.23;;;4.80;;
1026;SDS011;502;48.746;9.214;2023-06-19T15:25:30;4.87;;;4.43;;
1026;SDS011;502;48.746;9.214;2023-06-19T15:27:58;5.93;;;5.43;;
1026;SDS011;502;48.746;9.214;2023-06-19T15:30:25;5.23;;;4.83;;
1026;SDS011;502;48.746;9.214;2023-06-19T15:32:52;5.23;;;4.70;;
1026;SDS011;502;48.746;9.214;2023-06-19T15:35:20;5.83;;;5.27;;
1026;SDS011;502;48.746;9.214;2023-06-19T15:37:46;5.80;;;5.20;;